Time;durP1;ratioP1;P1;durP2;ratioP2;P2;SDS_P1;SDS_P2;PMS_P1;PMS_P2;Temp;Humidity;BMP_temperature;BMP_pressure;BME280_temperature;BME280_humidity;BME280_pressure;Samples;Min_cycle;Max_cycle;Signal;HPM_P1;HPM_P2
2022/10/04 00:01:02;;;;;;;2.80;1.13;;;;;;;;;;5055466;28;20032;-80
2022/10/04 00:03:32;;;;;;;2.75;1.02;;;;;;;;;;5057701;28;20083;-79
2022/10/04 00:05:59;;;;;;;4.68;1.30;;;;;;;;;;5055797;28;20039;-80
2022/10/04 00:08:29;;;;;;;3.83;1.52;;;;;;;;;;5056725;28;20036;-82
2022/10/04 00:11:04;;;;;;;5.47;1.38;;;;;;;;;;5056920;28;20028;-81
2022/10/04 00:13:31;;;;;;;3.85;1.38;;;;;;;;;;5055874;28;20108;-81
2022/10/04 00:15:57;;;;;;;3.15;1.00;;;;;;;;;;5054933;28;20453;-81
2022/10/04 00:18:31;;;;;;;3.65;1.40;;;;;;;;;;5053994;28;20033;-82
2022/10/04 00:20:59;;;;;;;3.30;1.02;;;;;;;;;;5052397;28;20112;-81
2022/10/04 00:23:28;;;;;;;3.03;1.00;;;;;;;;;;5054786;28;20024;-81
2022/10/04 00:25:54;;;;;;;3.60;1.13;;;;;;;;;;5054611;28;20032;-80
2022/10/04 00:28:20;;;;;;;4.70;1.40;;;;;;;;;;5053236;28;20461;-80
2022/10/04 00:31:05;;;;;;;3.25;1.40;;;;;;;;;;5053718;28;20028;-79
2022/10/04 00:33:38;;;;;;;3.60;1.40;;;;;;;;;;5052982;28;20021;-81
2022/10/04 00:36:23;;;;;;;3.83;1.13;;;;;;;;;;5054077;28;20020;-79
2022/10/04 00:39:04;;;;;;;4.63;1.42;;;;;;;;;;5034923;28;20025;-82
2022/10/04 00:41:36;;;;;;;3.80;1.17;;;;;;;;;;5038163;28;20029;-81
2022/10/04 00:44:04;;;;;;;5.07;1.40;;;;;;;;;;5053729;28;20484;-81
2022/10/04 00:46:32;;;;;;;6.10;1.13;;;;;;;;;;5053712;28;20057;-82
2022/10/04 00:48:59;;;;;;;4.30;1.15;;;;;;;;;;5055560;28;20502;-82
2022/10/04 00:51:43;;;;;;;3.53;1.30;;;;;;;;;;5056221;28;20040;-81
2022/10/04 00:54:42;;;;;;;3.80;1.45;;;;;;;;;;5056011;28;20055;-81
2022/10/04 00:57:09;;;;;;;4.25;1.00;;;;;;;;;;4943290;28;20031;-82
2022/10/04 00:59:35;;;;;;;3.30;1.10;;;;;;;;;;4955775;29;20498;-81
2022/10/04 01:02:15;;;;;;;5.20;1.45;;;;;;;;;;4955232;29;20039;-82
2022/10/04 01:04:43;;;;;;;4.68;1.45;;;;;;;;;;4956114;28;20036;-82
2022/10/04 01:07:10;;;;;;;3.80;1.33;;;;;;;;;;4954809;28;20055;-80
2022/10/04 01:09:39;;;;;;;5.45;1.98;;;;;;;;;;4955155;28;20513;-81
2022/10/04 01:12:10;;;;;;;4.93;1.40;;;;;;;;;;4957889;29;20163;-82
2022/10/04 01:14:36;;;;;;;2.95;1.13;;;;;;;;;;4959517;29;20106;-82
2022/10/04 01:17:03;;;;;;;2.80;1.20;;;;;;;;;;4940710;29;20135;-80
2022/10/04 01:19:30;;;;;;;3.85;1.20;;;;;;;;;;4955784;28;20075;-82
2022/10/04 01:22:09;;;;;;;3.75;1.30;;;;;;;;;;4957154;28;20035;-80
2022/10/04 01:24:36;;;;;;;3.25;1.20;;;;;;;;;;4956781;28;20027;-81
2022/10/04 01:27:03;;;;;;;3.53;1.20;;;;;;;;;;4956841;29;20062;-81
2022/10/04 01:29:29;;;;;;;4.22;1.60;;;;;;;;;;4938908;29;20026;-81
2022/10/04 01:31:57;;;;;;;2.90;1.17;;;;;;;;;;4975577;28;20487;-80
2022/10/04 01:34:24;;;;;;;3.30;1.00;;;;;;;;;;5058707;28;20017;-81
2022/10/04 01:36:53;;;;;;;3.08;1.23;;;;;;;;;;5058674;28;20491;-81
2022/10/04 01:39:20;;;;;;;4.07;1.20;;;;;;;;;;5052073;28;20013;-80
2022/10/04 01:41:52;;;;;;;4.05;1.40;;;;;;;;;;5047092;28;20120;-79
2022/10/04 01:44:22;;;;;;;3.90;1.20;;;;;;;;;;5023784;28;20029;-81
2022/10/04 01:46:49;;;;;;;6.03;1.30;;;;;;;;;;5042648;28;20495;-81
2022/10/04 01:49:20;;;;;;;6.22;1.40;;;;;;;;;;5058396;28;20107;-80
2022/10/04 01:51:57;;;;;;;4.47;1.40;;;;;;;;;;5057938;28;20055;-81
2022/10/04 01:54:41;;;;;;;3.83;1.70;;;;;;;;;;5057449;28;20025;-80
2022/10/04 01:57:12;;;;;;;12.25;5.38;;;;;;;;;;5056454;28;20036;-82
2022/10/04 01:59:41;;;;;;;27.63;14.02;;;;;;;;;;5039936;28;20102;-80
2022/10/04 02:02:30;;;;;;;5.90;3.10;;;;;;;;;;5057253;28;20048;-81
2022/10/04 02:04:57;;;;;;;6.32;3.33;;;;;;;;;;5058574;28;20029;-80
2022/10/04 02:07:25;;;;;;;4.18;2.10;;;;;;;;;;5057687;28;20025;-81
2022/10/04 02:09:55;;;;;;;5.85;2.40;;;;;;;;;;5059743;28;20112;-80
2022/10/04 02:12:21;;;;;;;5.80;3.15;;;;;;;;;;5036249;28;20064;-80
2022/10/04 02:14:51;;;;;;;3.50;1.63;;;;;;;;;;5059119;28;20052;-80
2022/10/04 02:17:18;;;;;;;3.95;1.30;;;;;;;;;;5057928;28;20107;-82
2022/10/04 02:19:44;;;;;;;3.38;1.50;;;;;;;;;;5059478;28;20090;-81
2022/10/04 02:22:11;;;;;;;4.18;1.50;;;;;;;;;;5040429;28;20048;-81
2022/10/04 02:24:40;;;;;;;4.05;1.58;;;;;;;;;;5039881;28;20025;-81
2022/10/04 02:27:06;;;;;;;4.47;1.58;;;;;;;;;;5039849;28;20128;-81
2022/10/04 02:29:34;;;;;;;4.95;1.45;;;;;;;;;;5058893;28;20025;-81
2022/10/04 02:34:47;;;;;;;4.80;2.30;;;;;;;;;;5057844;28;20056;-80
2022/10/04 02:37:14;;;;;;;50.35;25.27;;;;;;;;;;5056037;28;20040;-80
2022/10/04 02:39:43;;;;;;;6.60;3.35;;;;;;;;;;5059938;28;20049;-80
2022/10/04 02:42:14;;;;;;;6.68;2.08;;;;;;;;;;5064921;28;20028;-80
2022/10/04 02:44:42;;;;;;;4.45;2.00;;;;;;;;;;5060300;28;20029;-81
2022/10/04 02:47:20;;;;;;;5.03;2.20;;;;;;;;;;5061925;28;20128;-80
2022/10/04 02:49:48;;;;;;;6.30;2.22;;;;;;;;;;5057294;28;20098;-82
2022/10/04 02:52:30;;;;;;;4.75;2.83;;;;;;;;;;5051507;28;20025;-82
2022/10/04 02:54:56;;;;;;;5.20;1.73;;;;;;;;;;5051258;28;20025;-83
2022/10/04 02:57:23;;;;;;;5.20;1.70;;;;;;;;;;5067522;28;20060;-82
2022/10/04 02:59:49;;;;;;;5.05;1.95;;;;;;;;;;5064473;28;20032;-80
2022/10/04 03:02:26;;;;;;;4.43;1.90;;;;;;;;;;5060690;28;20060;-80
2022/10/04 03:04:53;;;;;;;4.15;1.60;;;;;;;;;;5063380;28;20116;-80
2022/10/04 03:07:20;;;;;;;4.93;2.10;;;;;;;;;;5064360;28;20025;-79
2022/10/04 03:09:46;;;;;;;289.05;123.75;;;;;;;;;;5045666;28;20024;-83
2022/10/04 03:12:13;;;;;;;4.85;2.00;;;;;;;;;;5062365;28;20029;-82
2022/10/04 03:14:39;;;;;;;4.80;2.25;;;;;;;;;;5061066;28;20021;-81
2022/10/04 03:17:07;;;;;;;7.45;3.10;;;;;;;;;;5049364;28;20037;-81
2022/10/04 03:19:33;;;;;;;5.10;2.10;;;;;;;;;;5042243;28;20018;-82
2022/10/04 03:22:06;;;;;;;5.25;2.85;;;;;;;;;;5056394;28;20040;-81
2022/10/04 03:24:42;;;;;;;6.68;3.63;;;;;;;;;;5056026;28;20025;-81
2022/10/04 03:27:13;;;;;;;9.10;4.57;;;;;;;;;;5047428;28;20421;-81
2022/10/04 03:29:42;;;;;;;4.85;1.80;;;;;;;;;;5062079;28;20021;-81
2022/10/04 03:32:10;;;;;;;4.53;1.95;;;;;;;;;;5060133;28;20025;-82
2022/10/04 03:34:38;;;;;;;5.47;2.00;;;;;;;;;;5047597;28;20031;-81
2022/10/04 03:37:09;;;;;;;4.47;1.80;;;;;;;;;;5058847;28;20048;-81
2022/10/04 03:39:41;;;;;;;4.70;1.73;;;;;;;;;;5060057;28;20029;-82
2022/10/04 03:42:11;;;;;;;4.05;1.40;;;;;;;;;;5052394;28;20032;-82
2022/10/04 03:44:37;;;;;;;5.90;2.38;;;;;;;;;;5051786;28;20041;-82
2022/10/04 03:47:14;;;;;;;5.45;1.98;;;;;;;;;;5038281;28;20050;-81
2022/10/04 03:49:40;;;;;;;5.13;1.98;;;;;;;;;;5037776;28;20033;-83
2022/10/04 03:52:07;;;;;;;5.32;2.28;;;;;;;;;;5034805;28;20018;-84
2022/10/04 03:54:34;;;;;;;10.27;3.10;;;;;;;;;;5036793;28;20025;-80
2022/10/04 03:57:01;;;;;;;5.95;3.17;;;;;;;;;;5036977;28;20033;-82
2022/10/04 03:59:28;;;;;;;4.13;2.20;;;;;;;;;;5035221;28;20026;-82
2022/10/04 04:01:54;;;;;;;5.63;1.80;;;;;;;;;;5036372;28;20030;-81
2022/10/04 04:04:29;;;;;;;6.00;2.20;;;;;;;;;;5038096;28;20025;-81
2022/10/04 04:07:02;;;;;;;4.78;1.90;;;;;;;;;;5037508;28;20037;-82
2022/10/04 04:09:37;;;;;;;5.57;2.47;;;;;;;;;;5037268;28;20025;-84
2022/10/04 04:12:05;;;;;;;4.70;1.83;;;;;;;;;;5037059;28;20358;-79
2022/10/04 04:14:32;;;;;;;6.00;2.30;;;;;;;;;;5037212;28;20026;-85
2022/10/04 04:17:16;;;;;;;5.70;2.80;;;;;;;;;;5029137;28;20152;-85
2022/10/04 04:19:43;;;;;;;5.10;2.63;;;;;;;;;;5021735;28;20032;-83
2022/10/04 04:22:14;;;;;;;5.80;2.95;;;;;;;;;;5034719;28;20026;-85
2022/10/04 04:24:42;;;;;;;6.10;2.30;;;;;;;;;;5033148;28;20548;-83
2022/10/04 04:27:09;;;;;;;4.95;2.00;;;;;;;;;;5036466;28;20033;-85
2022/10/04 04:29:48;;;;;;;4.72;2.10;;;;;;;;;;5039387;28;20389;-84
2022/10/04 04:32:17;;;;;;;5.15;2.15;;;;;;;;;;5035754;28;20018;-84
2022/10/04 04:34:51;;;;;;;5.15;2.63;;;;;;;;;;5038941;28;20388;-84
2022/10/04 04:37:17;;;;;;;5.20;2.10;;;;;;;;;;5036049;28;20025;-83
2022/10/04 04:39:48;;;;;;;4.20;1.88;;;;;;;;;;5036208;28;20038;-83
2022/10/04 04:42:20;;;;;;;5.32;2.42;;;;;;;;;;5036162;28;20025;-83
2022/10/04 04:44:53;;;;;;;13.48;8.88;;;;;;;;;;5035766;28;20480;-83
2022/10/04 04:47:34;;;;;;;5.85;2.40;;;;;;;;;;5033997;28;20080;-82
2022/10/04 04:50:08;;;;;;;4.97;1.83;;;;;;;;;;5036193;28;20074;-82
2022/10/04 04:52:34;;;;;;;6.30;2.40;;;;;;;;;;5034369;28;20025;-84
2022/10/04 04:55:01;;;;;;;4.68;2.03;;;;;;;;;;5035345;28;20026;-84
2022/10/04 04:57:27;;;;;;;5.50;1.95;;;;;;;;;;5034536;28;20060;-84
2022/10/04 04:59:56;;;;;;;4.70;1.60;;;;;;;;;;5034462;28;20108;-83
2022/10/04 05:02:34;;;;;;;7.03;2.65;;;;;;;;;;5032587;28;20030;-85
2022/10/04 05:05:19;;;;;;;4.57;1.92;;;;;;;;;;5035359;28;20499;-86
2022/10/04 05:07:45;;;;;;;5.65;2.40;;;;;;;;;;5022162;28;20386;-84
2022/10/04 05:10:20;;;;;;;6.95;3.63;;;;;;;;;;5030015;28;20018;-83
2022/10/04 05:12:46;;;;;;;10.60;4.72;;;;;;;;;;5031024;28;20025;-83
2022/10/04 05:15:13;;;;;;;9.10;3.45;;;;;;;;;;5038710;28;20052;-82
2022/10/04 05:17:39;;;;;;;9.38;3.80;;;;;;;;;;5035845;28;20093;-84
2022/10/04 05:20:05;;;;;;;6.80;2.60;;;;;;;;;;5036438;28;20033;-84
2022/10/04 05:22:32;;;;;;;10.25;4.40;;;;;;;;;;5022769;28;20120;-83
2022/10/04 05:25:01;;;;;;;7.72;3.47;;;;;;;;;;5037118;28;20033;-83
2022/10/04 05:27:32;;;;;;;11.25;5.28;;;;;;;;;;5038187;28;20124;-84
2022/10/04 05:30:18;;;;;;;11.77;5.45;;;;;;;;;;5026397;28;20033;-81
2022/10/04 05:32:44;;;;;;;7.22;3.60;;;;;;;;;;5022266;28;20021;-83
2022/10/04 05:35:16;;;;;;;10.18;4.72;;;;;;;;;;5035556;28;20026;-82
2022/10/04 05:37:42;;;;;;;;;;;;;;;;;;5040031;28;20026;-83
2022/10/04 05:40:14;;;;;;;13.68;5.85;;;;;;;;;;5038518;28;20286;-82
2022/10/04 05:42:45;;;;;;;11.53;5.70;;;;;;;;;;5037667;28;20128;-82
2022/10/04 05:45:22;;;;;;;9.10;4.18;;;;;;;;;;5038299;28;20280;-82
2022/10/04 05:47:50;;;;;;;19.45;10.20;;;;;;;;;;5048740;28;20115;-83
2022/10/04 05:50:18;;;;;;;8.77;4.63;;;;;;;;;;5038927;28;20029;-84
2022/10/04 05:52:46;;;;;;;5.80;2.88;;;;;;;;;;5037398;28;20029;-85
2022/10/04 05:55:15;;;;;;;7.45;3.30;;;;;;;;;;5058049;28;20017;-84
2022/10/04 05:58:00;;;;;;;7.38;3.80;;;;;;;;;;5063418;28;20029;-84
2022/10/04 06:00:42;;;;;;;6.95;3.97;;;;;;;;;;5064164;28;20506;-84
2022/10/04 06:03:22;;;;;;;5.55;2.80;;;;;;;;;;5062775;28;20005;-85
2022/10/04 06:05:56;;;;;;;6.97;3.20;;;;;;;;;;5042326;28;20025;-84
2022/10/04 06:08:30;;;;;;;8.95;3.83;;;;;;;;;;5060894;28;20025;-83
2022/10/04 06:11:02;;;;;;;11.15;5.80;;;;;;;;;;5052174;28;20029;-84
2022/10/04 06:13:31;;;;;;;11.90;6.03;;;;;;;;;;5058512;28;20025;-83
2022/10/04 06:16:10;;;;;;;7.68;3.30;;;;;;;;;;5061961;28;20089;-82
2022/10/04 06:18:45;;;;;;;8.85;3.47;;;;;;;;;;5061165;28;20021;-83
2022/10/04 06:21:11;;;;;;;6.90;3.05;;;;;;;;;;5046500;28;20048;-83
2022/10/04 06:23:43;;;;;;;5.78;2.75;;;;;;;;;;5045418;28;20021;-83
2022/10/04 06:26:12;;;;;;;7.63;2.97;;;;;;;;;;5064284;28;20021;-82
2022/10/04 06:28:45;;;;;;;6.47;2.65;;;;;;;;;;5070096;28;20052;-82
2022/10/04 06:31:30;;;;;;;5.75;2.53;;;;;;;;;;5070368;28;20020;-82
2022/10/04 06:34:02;;;;;;;5.63;2.45;;;;;;;;;;5067578;28;20494;-84
2022/10/04 06:36:34;;;;;;;7.20;3.60;;;;;;;;;;5063280;28;20032;-83
2022/10/04 06:39:06;;;;;;;5.05;2.20;;;;;;;;;;5063644;28;20025;-84
2022/10/04 06:41:32;;;;;;;6.90;2.60;;;;;;;;;;5063316;28;20100;-82
2022/10/04 06:44:14;;;;;;;7.60;2.60;;;;;;;;;;5042735;28;20025;-82
2022/10/04 06:46:45;;;;;;;4.72;2.30;;;;;;;;;;5059791;28;20037;-83
2022/10/04 06:49:12;;;;;;;6.93;3.15;;;;;;;;;;5060833;28;20028;-82
2022/10/04 06:52:00;;;;;;;6.05;2.67;;;;;;;;;;5060936;28;20551;-83
2022/10/04 06:54:38;;;;;;;5.53;2.40;;;;;;;;;;5053130;28;20029;-84
2022/10/04 06:57:17;;;;;;;5.30;2.17;;;;;;;;;;5059568;28;20047;-82
2022/10/04 06:59:50;;;;;;;6.07;2.25;;;;;;;;;;5042224;28;20537;-83
2022/10/04 07:02:16;;;;;;;;;;;;;;;;;;5059239;28;20028;-83
2022/10/04 07:05:04;;;;;;;6.25;2.50;;;;;;;;;;5058028;28;19908;-83
2022/10/04 07:07:34;;;;;;;6.30;2.60;;;;;;;;;;5059321;28;20013;-83
2022/10/04 07:10:19;;;;;;;4.30;2.00;;;;;;;;;;5056175;28;20067;-83
2022/10/04 07:12:53;;;;;;;4.50;1.90;;;;;;;;;;5057884;28;20155;-83
2022/10/04 07:15:23;;;;;;;5.45;2.22;;;;;;;;;;5060520;28;20033;-83
2022/10/04 07:17:49;;;;;;;6.40;3.55;;;;;;;;;;5059923;28;20039;-84
2022/10/04 07:20:22;;;;;;;6.97;2.58;;;;;;;;;;5044113;28;20029;-85
2022/10/04 07:22:53;;;;;;;5.70;2.38;;;;;;;;;;5043467;28;20040;-83
2022/10/04 07:25:22;;;;;;;5.60;2.08;;;;;;;;;;5044049;28;20036;-83
2022/10/04 07:30:42;;;;;;;5.43;2.30;;;;;;;;;;5061553;28;20040;-84
2022/10/04 07:33:08;;;;;;;4.72;2.25;;;;;;;;;;5060039;28;20403;-83
2022/10/04 07:35:47;;;;;;;4.78;2.05;;;;;;;;;;5061664;28;20044;-83
2022/10/04 07:38:16;;;;;;;6.72;3.15;;;;;;;;;;5061767;28;20046;-84
2022/10/04 07:40:51;;;;;;;5.75;2.60;;;;;;;;;;5061128;28;20135;-84
2022/10/04 07:43:23;;;;;;;6.65;3.28;;;;;;;;;;5060289;28;20164;-84
2022/10/04 07:45:50;;;;;;;6.32;2.97;;;;;;;;;;5060760;28;20021;-82
2022/10/04 07:48:21;;;;;;;7.65;3.17;;;;;;;;;;5059541;28;20045;-82
2022/10/04 07:51:08;;;;;;;6.07;2.75;;;;;;;;;;5061588;28;20102;-82
2022/10/04 07:53:43;;;;;;;6.25;2.78;;;;;;;;;;5062066;28;20045;-83
2022/10/04 07:56:09;;;;;;;6.72;2.60;;;;;;;;;;5060359;28;20025;-83
2022/10/04 07:58:44;;;;;;;6.20;3.03;;;;;;;;;;5041656;28;20040;-83
2022/10/04 08:01:13;;;;;;;6.53;2.50;;;;;;;;;;5041619;28;20050;-83
2022/10/04 08:03:46;;;;;;;7.15;2.65;;;;;;;;;;5061304;28;20029;-82
2022/10/04 08:06:16;;;;;;;5.60;2.40;;;;;;;;;;5060037;28;20055;-83
2022/10/04 08:09:06;;;;;;;6.90;3.10;;;;;;;;;;5041917;28;20048;-83
2022/10/04 08:11:48;;;;;;;7.95;3.22;;;;;;;;;;5059130;28;20039;-83
2022/10/04 08:14:21;;;;;;;5.57;2.15;;;;;;;;;;5061223;28;20021;-83
2022/10/04 08:17:06;;;;;;;6.30;2.95;;;;;;;;;;5060647;28;20040;-83
2022/10/04 08:19:40;;;;;;;6.05;3.42;;;;;;;;;;5059716;28;20561;-83
2022/10/04 08:22:25;;;;;;;7.63;2.97;;;;;;;;;;5061361;28;20372;-84
2022/10/04 08:25:09;;;;;;;6.15;2.88;;;;;;;;;;5060807;28;20032;-84
2022/10/04 08:30:45;;;;;;;6.20;3.38;;;;;;;;;;5061812;28;20032;-83
2022/10/04 08:33:30;;;;;;;7.00;2.95;;;;;;;;;;5061009;28;20028;-83
2022/10/04 08:36:04;;;;;;;6.55;3.00;;;;;;;;;;5060294;28;20065;-82
2022/10/04 08:38:33;;;;;;;5.55;2.55;;;;;;;;;;5059348;28;20075;-84
2022/10/04 08:40:59;;;;;;;6.32;2.25;;;;;;;;;;5059673;28;20261;-84
2022/10/04 08:43:55;;;;;;;9.93;6.07;;;;;;;;;;5042621;28;20105;-83
2022/10/04 08:46:27;;;;;;;6.68;3.17;;;;;;;;;;5058854;28;20041;-84
2022/10/04 08:49:08;;;;;;;6.63;2.55;;;;;;;;;;5056634;28;20109;-83
2022/10/04 08:51:53;;;;;;;8.38;3.47;;;;;;;;;;5060457;28;20029;-83
2022/10/04 08:54:39;;;;;;;6.57;2.55;;;;;;;;;;5040900;28;20080;-81
2022/10/04 08:57:14;;;;;;;7.28;3.47;;;;;;;;;;5024680;28;20029;-83
2022/10/04 08:59:56;;;;;;;6.40;2.67;;;;;;;;;;5060938;28;20009;-83
2022/10/04 09:02:46;;;;;;;5.10;2.40;;;;;;;;;;5042728;28;20078;-84
2022/10/04 09:05:25;;;;;;;6.97;3.20;;;;;;;;;;5060521;28;20024;-83
2022/10/04 09:07:51;;;;;;;6.43;2.55;;;;;;;;;;5060493;28;20513;-84
2022/10/04 09:10:26;;;;;;;6.10;3.05;;;;;;;;;;5060186;28;20107;-83
2022/10/04 09:13:11;;;;;;;14.18;6.10;;;;;;;;;;5042586;28;20032;-83
2022/10/04 09:15:55;;;;;;;8.95;3.25;;;;;;;;;;5059141;28;20533;-83
2022/10/04 09:18:28;;;;;;;7.55;4.28;;;;;;;;;;5059097;28;20083;-81
2022/10/04 09:20:55;;;;;;;;;;;;;;;;;;5060459;28;20029;-84
2022/10/04 09:23:30;;;;;;;6.57;2.80;;;;;;;;;;5060217;28;19905;-84
2022/10/04 09:26:15;;;;;;;7.57;2.72;;;;;;;;;;5059381;28;20029;-84
2022/10/04 09:28:47;;;;;;;5.22;2.25;;;;;;;;;;5060189;28;20036;-83
2022/10/04 09:31:13;;;;;;;5.72;2.55;;;;;;;;;;5061322;28;20037;-84
2022/10/04 09:33:48;;;;;;;7.70;3.20;;;;;;;;;;5064583;28;20025;-82
2022/10/04 09:36:23;;;;;;;6.07;2.70;;;;;;;;;;5063808;28;20032;-83
2022/10/04 09:39:03;;;;;;;5.70;3.00;;;;;;;;;;5063571;28;20056;-83
2022/10/04 09:41:38;;;;;;;6.22;2.97;;;;;;;;;;5047907;28;20047;-83
2022/10/04 09:44:19;;;;;;;10.15;4.25;;;;;;;;;;5045638;28;20083;-83
2022/10/04 09:47:02;;;;;;;41.90;22.40;;;;;;;;;;5059679;28;20056;-83
2022/10/04 09:49:54;;;;;;;8.02;3.80;;;;;;;;;;5052068;28;20114;-85
2022/10/04 09:52:32;;;;;;;6.70;2.88;;;;;;;;;;5052652;28;20060;-83
2022/10/04 09:55:03;;;;;;;10.75;4.07;;;;;;;;;;5062077;28;20096;-81
2022/10/04 09:57:53;;;;;;;6.93;2.63;;;;;;;;;;5060491;28;20017;-84
2022/10/04 10:00:22;;;;;;;6.70;2.58;;;;;;;;;;5029621;28;20017;-82
2022/10/04 10:03:07;;;;;;;5.38;2.20;;;;;;;;;;5061122;28;20060;-83
2022/10/04 10:05:42;;;;;;;5.47;2.67;;;;;;;;;;5062861;28;20049;-83
2022/10/04 10:08:14;;;;;;;6.22;3.00;;;;;;;;;;5063217;28;20084;-82
2022/10/04 10:13:49;;;;;;;6.93;3.20;;;;;;;;;;5063423;28;20096;-82
2022/10/04 10:16:20;;;;;;;6.93;2.28;;;;;;;;;;5063058;28;20017;-81
2022/10/04 10:18:46;;;;;;;8.32;3.13;;;;;;;;;;5025670;28;20029;-83
2022/10/04 10:21:12;;;;;;;5.03;2.15;;;;;;;;;;5056472;28;20040;-85
2022/10/04 10:23:42;;;;;;;5.43;2.00;;;;;;;;;;5065958;28;20029;-83
2022/10/04 10:26:23;;;;;;;4.43;2.03;;;;;;;;;;5045627;28;20052;-83
2022/10/04 10:28:56;;;;;;;5.47;2.10;;;;;;;;;;5063215;28;20124;-83
2022/10/04 10:31:31;;;;;;;5.57;2.30;;;;;;;;;;5056905;28;20017;-83
2022/10/04 10:34:16;;;;;;;4.53;2.00;;;;;;;;;;5046737;28;20104;-83
2022/10/04 10:37:00;;;;;;;6.88;2.58;;;;;;;;;;5042527;28;20551;-84
2022/10/04 10:39:45;;;;;;;4.93;1.70;;;;;;;;;;5043021;28;20132;-82
2022/10/04 10:42:14;;;;;;;6.28;2.83;;;;;;;;;;5054430;28;20040;-83
2022/10/04 10:44:55;;;;;;;7.03;3.00;;;;;;;;;;5061568;28;20029;-83
2022/10/04 10:47:21;;;;;;;13.73;7.60;;;;;;;;;;5051943;28;20037;-82
2022/10/04 10:49:59;;;;;;;8.95;3.45;;;;;;;;;;5050404;28;20028;-82
2022/10/04 10:52:38;;;;;;;5.47;2.35;;;;;;;;;;5059122;28;20021;-83
2022/10/04 10:55:18;;;;;;;6.03;2.70;;;;;;;;;;5062220;28;20048;-83
2022/10/04 10:57:56;;;;;;;4.78;2.17;;;;;;;;;;5058938;28;20394;-83
2022/10/04 11:00:41;;;;;;;6.50;2.88;;;;;;;;;;5057757;28;20345;-83
2022/10/04 11:03:07;;;;;;;6.03;2.22;;;;;;;;;;5040009;28;20063;-82
2022/10/04 11:05:33;;;;;;;6.20;2.17;;;;;;;;;;5048895;28;20033;-82
2022/10/04 11:08:18;;;;;;;7.28;3.33;;;;;;;;;;5059577;28;20040;-82
2022/10/04 11:11:17;;;;;;;5.22;2.20;;;;;;;;;;5038878;28;20030;-82
2022/10/04 11:14:01;;;;;;;5.45;2.40;;;;;;;;;;4981168;28;20057;-84
2022/10/04 11:16:33;;;;;;;4.72;2.03;;;;;;;;;;5043046;28;20059;-82
2022/10/04 11:19:14;;;;;;;6.90;1.85;;;;;;;;;;5058838;28;20025;-81
2022/10/04 11:22:05;;;;;;;5.45;2.10;;;;;;;;;;5054428;28;20017;-82
2022/10/04 11:24:50;;;;;;;6.22;1.90;;;;;;;;;;5058412;28;20476;-82
2022/10/04 11:27:23;;;;;;;5.78;1.83;;;;;;;;;;5044177;28;20159;-81
2022/10/04 11:29:55;;;;;;;4.25;2.00;;;;;;;;;;5039438;28;20025;-80
2022/10/04 11:32:40;;;;;;;4.10;2.00;;;;;;;;;;5052845;28;20136;-81
2022/10/04 11:35:15;;;;;;;5.40;1.73;;;;;;;;;;5059077;28;20108;-81
2022/10/04 11:38:01;;;;;;;6.45;2.25;;;;;;;;;;5058209;28;20037;-81
2022/10/04 11:40:38;;;;;;;5.05;1.90;;;;;;;;;;5059652;28;20024;-80
2022/10/04 11:43:06;;;;;;;5.43;2.50;;;;;;;;;;5059482;28;20025;-83
2022/10/04 11:45:42;;;;;;;6.05;2.30;;;;;;;;;;5060666;28;20089;-83
2022/10/04 11:48:26;;;;;;;5.00;2.20;;;;;;;;;;5053325;28;20052;-81
2022/10/04 11:51:20;;;;;;;5.65;1.98;;;;;;;;;;5057881;28;20079;-83
2022/10/04 11:54:06;;;;;;;4.28;2.00;;;;;;;;;;5057233;28;20123;-82
2022/10/04 11:56:40;;;;;;;4.30;2.00;;;;;;;;;;5058533;28;20013;-83
2022/10/04 11:59:09;;;;;;;5.60;2.13;;;;;;;;;;5039974;28;20029;-82
2022/10/04 12:02:05;;;;;;;8.45;3.83;;;;;;;;;;5057876;28;20091;-82
2022/10/04 12:04:52;;;;;;;6.63;2.50;;;;;;;;;;5037731;28;20087;-83
2022/10/04 12:07:27;;;;;;;5.10;2.65;;;;;;;;;;5058696;28;20487;-83
2022/10/04 12:10:19;;;;;;;6.03;2.70;;;;;;;;;;5058665;28;20025;-82
2022/10/04 12:12:54;;;;;;;5.87;2.37;;;;;;;;;;4996690;28;20465;-83
2022/10/04 12:15:33;;;;;;;6.07;2.63;;;;;;;;;;4997411;28;20030;-82
2022/10/04 12:18:05;;;;;;;5.60;2.28;;;;;;;;;;4993650;28;20042;-83
2022/10/04 12:20:43;;;;;;;7.43;3.00;;;;;;;;;;4996370;28;20034;-82
2022/10/04 12:23:28;;;;;;;18.98;12.23;;;;;;;;;;4995758;28;20042;-83
2022/10/04 12:26:12;;;;;;;5.20;2.67;;;;;;;;;;4995796;28;20040;-84
2022/10/04 12:28:47;;;;;;;8.68;3.15;;;;;;;;;;4989555;28;20056;-83
2022/10/04 12:31:25;;;;;;;5.00;2.60;;;;;;;;;;4995698;28;20610;-83
2022/10/04 12:33:55;;;;;;;5.03;2.30;;;;;;;;;;4996100;28;20381;-83
2022/10/04 12:36:40;;;;;;;6.60;2.42;;;;;;;;;;4995717;28;20125;-82
2022/10/04 12:39:06;;;;;;;4.65;1.60;;;;;;;;;;4988943;28;20031;-82
2022/10/04 12:41:35;;;;;;;5.88;2.40;;;;;;;;;;4996086;28;20022;-82
2022/10/04 12:44:28;;;;;;;6.55;2.80;;;;;;;;;;4996289;28;20544;-84
2022/10/04 12:47:20;;;;;;;4.82;2.15;;;;;;;;;;4979442;28;20093;-82
2022/10/04 12:49:49;;;;;;;5.07;2.25;;;;;;;;;;4997651;28;20080;-80
2022/10/04 12:52:17;;;;;;;6.05;2.10;;;;;;;;;;5020556;28;20111;-82
2022/10/04 12:54:43;;;;;;;6.15;2.58;;;;;;;;;;5019502;28;20022;-82
2022/10/04 12:57:21;;;;;;;7.05;2.50;;;;;;;;;;5054024;28;20078;-82
2022/10/04 12:59:51;;;;;;;8.85;2.70;;;;;;;;;;5055999;28;20009;-82
2022/10/04 13:02:26;;;;;;;4.50;2.35;;;;;;;;;;5056747;28;20045;-83
2022/10/04 13:04:52;;;;;;;4.55;2.00;;;;;;;;;;5057632;28;20128;-82
2022/10/04 13:07:50;;;;;;;5.18;1.90;;;;;;;;;;5060109;28;20053;-82
2022/10/04 13:10:34;;;;;;;4.95;1.85;;;;;;;;;;5048574;28;20037;-82
2022/10/04 13:13:02;;;;;;;5.47;2.35;;;;;;;;;;5060263;28;20075;-83
2022/10/04 13:15:32;;;;;;;4.90;2.40;;;;;;;;;;5060871;28;20021;-82
2022/10/04 13:17:58;;;;;;;5.70;1.92;;;;;;;;;;5028198;28;20040;-83
2022/10/04 13:20:45;;;;;;;5.13;2.25;;;;;;;;;;5062459;28;20032;-82
2022/10/04 13:23:11;;;;;;;5.22;1.77;;;;;;;;;;5062651;28;20086;-82
2022/10/04 13:25:55;;;;;;;4.45;2.10;;;;;;;;;;5061270;28;20116;-82
2022/10/04 13:28:29;;;;;;;5.32;2.20;;;;;;;;;;5060807;28;20068;-82
2022/10/04 13:31:02;;;;;;;5.50;1.80;;;;;;;;;;5061013;28;20078;-82
2022/10/04 13:33:33;;;;;;;6.30;2.15;;;;;;;;;;5061409;28;20013;-83
2022/10/04 13:36:22;;;;;;;5.43;1.80;;;;;;;;;;5062173;28;20017;-82
2022/10/04 13:38:55;;;;;;;4.40;1.95;;;;;;;;;;5049427;28;20130;-83
2022/10/04 13:41:27;;;;;;;5.18;2.00;;;;;;;;;;5061325;28;20021;-82
2022/10/04 13:44:00;;;;;;;5.73;2.60;;;;;;;;;;5062325;28;20040;-82
2022/10/04 13:46:32;;;;;;;6.75;2.25;;;;;;;;;;5060096;28;20029;-82
2022/10/04 13:49:06;;;;;;;5.18;2.10;;;;;;;;;;5060582;28;20033;-81
2022/10/04 13:51:32;;;;;;;7.13;2.58;;;;;;;;;;5063011;28;20013;-82
2022/10/04 13:56:55;;;;;;;4.80;2.60;;;;;;;;;;5062942;28;20092;-83
2022/10/04 13:59:27;;;;;;;5.88;2.45;;;;;;;;;;5061619;28;20062;-82
2022/10/04 14:02:12;;;;;;;6.10;2.83;;;;;;;;;;5061671;28;20426;-81
2022/10/04 14:04:57;;;;;;;5.45;2.90;;;;;;;;;;5042789;28;20037;-83
2022/10/04 14:07:33;;;;;;;5.72;2.35;;;;;;;;;;5060468;28;20094;-83
2022/10/04 14:10:17;;;;;;;6.80;2.42;;;;;;;;;;5059185;28;20104;-82
2022/10/04 14:12:53;;;;;;;6.45;2.42;;;;;;;;;;5043546;28;20421;-83
2022/10/04 14:15:38;;;;;;;6.30;2.50;;;;;;;;;;5061929;28;20025;-83
2022/10/04 14:18:28;;;;;;;5.07;2.40;;;;;;;;;;5045227;28;20034;-80
2022/10/04 14:21:18;;;;;;;5.95;2.30;;;;;;;;;;5059695;28;20116;-80
2022/10/04 14:24:03;;;;;;;5.38;2.40;;;;;;;;;;5060909;28;20029;-81
2022/10/04 14:26:39;;;;;;;4.72;2.40;;;;;;;;;;5061072;28;20387;-83
2022/10/04 14:29:25;;;;;;;4.63;2.45;;;;;;;;;;5058698;28;20033;-82
2022/10/04 14:32:03;;;;;;;6.45;2.75;;;;;;;;;;5042083;28;20399;-82
2022/10/04 14:34:33;;;;;;;4.82;1.83;;;;;;;;;;5042049;28;20024;-82
2022/10/04 14:37:17;;;;;;;3.90;1.95;;;;;;;;;;5059106;28;20013;-82
2022/10/04 14:39:49;;;;;;;4.13;1.75;;;;;;;;;;5058149;28;20111;-82
2022/10/04 14:42:24;;;;;;;4.55;1.95;;;;;;;;;;5060232;28;20556;-82
2022/10/04 14:44:50;;;;;;;4.35;1.70;;;;;;;;;;5059675;28;20032;-81
2022/10/04 14:47:20;;;;;;;4.40;1.98;;;;;;;;;;5056478;28;20295;-81
2022/10/04 14:50:00;;;;;;;4.65;1.80;;;;;;;;;;5056544;28;20398;-81
2022/10/04 14:52:50;;;;;;;3.90;1.60;;;;;;;;;;5055976;28;20025;-82
2022/10/04 14:55:32;;;;;;;4.78;1.60;;;;;;;;;;5037837;28;20033;-82
2022/10/04 14:58:01;;;;;;;4.97;1.80;;;;;;;;;;5051158;28;20040;-82
2022/10/04 15:00:33;;;;;;;5.65;2.88;;;;;;;;;;5056182;28;20036;-82
2022/10/04 15:03:05;;;;;;;4.55;1.90;;;;;;;;;;5058052;28;20033;-82
2022/10/04 15:05:31;;;;;;;4.30;2.00;;;;;;;;;;5058626;28;20025;-82
2022/10/04 15:08:09;;;;;;;5.20;1.67;;;;;;;;;;5058312;28;20418;-81
2022/10/04 15:10:37;;;;;;;5.22;1.92;;;;;;;;;;5057197;28;20067;-79
2022/10/04 15:13:22;;;;;;;4.60;1.50;;;;;;;;;;5058224;28;20021;-79
2022/10/04 15:15:51;;;;;;;4.07;1.63;;;;;;;;;;5038624;28;20028;-79
2022/10/04 15:18:43;;;;;;;3.53;1.70;;;;;;;;;;5045651;28;20445;-79
2022/10/04 15:21:29;;;;;;;3.07;1.47;;;;;;;;;;5045484;28;20104;-80
2022/10/04 15:23:58;;;;;;;3.55;1.58;;;;;;;;;;5059583;28;20025;-81
2022/10/04 15:26:27;;;;;;;3.92;1.70;;;;;;;;;;5060160;28;20495;-81
2022/10/04 15:28:57;;;;;;;3.63;1.77;;;;;;;;;;5055703;28;20051;-80
2022/10/04 15:31:36;;;;;;;3.70;1.60;;;;;;;;;;5052694;28;20423;-81
2022/10/04 15:34:02;;;;;;;3.75;1.63;;;;;;;;;;5057326;28;20025;-80
2022/10/04 15:36:38;;;;;;;3.47;1.48;;;;;;;;;;5055917;28;20021;-80
2022/10/04 15:39:27;;;;;;;3.75;1.60;;;;;;;;;;5056313;28;20028;-80